Time;durP1;ratioP1;P1;durP2;ratioP2;P2;SDS_P1;SDS_P2;PMS_P1;PMS_P2;Temp;Humidity;BMP_temperature;BMP_pressure;BME280_temperature;BME280_humidity;BME280_pressure;Samples;Min_cycle;Max_cycle;Signal;HPM_P1;HPM_P2
2022/05/15 00:02:21;;;;;;;6.25;5.50;;;;;;;12.50;65.49;96800.86;1748518;81;20999;-87
2022/05/15 00:04:46;;;;;;;8.28;5.92;;;;;;;12.49;65.58;96809.67;1755643;81;21425;-87
2022/05/15 00:07:12;;;;;;;8.75;6.28;;;;;;;12.46;65.67;96800.92;1756506;81;21421;-86
2022/05/15 00:09:39;;;;;;;6.95;5.78;;;;;;;12.44;65.83;96798.50;1758825;81;21012;-87
2022/05/15 00:12:07;;;;;;;7.25;5.97;;;;;;;12.43;65.87;96804.70;1763441;81;21037;-87
2022/05/15 00:14:33;;;;;;;6.55;5.92;;;;;;;12.40;65.95;96804.27;1763246;81;20995;-87
2022/05/15 00:16:59;;;;;;;7.00;6.30;;;;;;;12.37;66.12;96800.23;1751198;81;21398;-86
2022/05/15 00:19:25;;;;;;;7.67;5.90;;;;;;;12.33;66.25;96804.17;1764385;81;21026;-87
2022/05/15 00:21:52;;;;;;;7.15;6.47;;;;;;;12.31;66.67;96806.16;1762917;81;20979;-87
2022/05/15 00:24:19;;;;;;;10.28;6.92;;;;;;;12.28;66.78;96805.22;1758679;81;21022;-86
2022/05/15 00:26:44;;;;;;;8.63;5.83;;;;;;;12.27;66.66;96806.21;1755338;81;21414;-87
2022/05/15 00:29:10;;;;;;;7.17;5.28;;;;;;;12.25;66.63;96806.89;1751097;81;21011;-87
2022/05/15 00:31:36;;;;;;;11.83;6.67;;;;;;;12.26;66.65;96808.50;1753007;81;21073;-87
2022/05/15 00:34:02;;;;;;;6.65;5.78;;;;;;;12.23;66.68;96810.98;1753772;81;21015;-87
2022/05/15 00:36:29;;;;;;;9.88;6.28;;;;;;;12.24;66.88;96810.48;1754354;81;21450;-87
2022/05/15 00:38:54;;;;;;;7.83;6.45;;;;;;;12.23;66.93;96806.27;1755495;81;21003;-87
2022/05/15 00:41:20;;;;;;;7.50;5.85;;;;;;;12.21;66.89;96805.64;1759869;81;21006;-87
2022/05/15 00:43:51;;;;;;;7.62;6.00;;;;;;;12.19;66.92;96807.59;1757582;81;21074;-87
2022/05/15 00:46:21;;;;;;;10.80;5.87;;;;;;;12.18;66.93;96815.10;1761817;81;21421;-86
2022/05/15 00:48:48;;;;;;;6.67;5.87;;;;;;;12.15;66.96;96810.26;1756717;81;21033;-87
2022/05/15 00:51:25;;;;;;;6.25;5.62;;;;;;;12.12;67.11;96814.03;1752928;81;21014;-87
2022/05/15 00:53:56;;;;;;;7.40;5.70;;;;;;;12.11;67.20;96810.31;1749396;81;21098;-87
2022/05/15 00:56:23;;;;;;;8.48;6.28;;;;;;;12.10;67.30;96816.02;1741268;81;21418;-87
2022/05/15 00:58:56;;;;;;;6.90;6.05;;;;;;;12.09;67.37;96811.80;1739695;80;21008;-87
2022/05/15 01:01:22;;;;;;;7.78;7.03;;;;;;;12.05;67.50;96815.76;1732263;81;21051;-86
2022/05/15 01:03:47;;;;;;;8.70;6.62;;;;;;;12.00;67.64;96811.56;1744245;81;21051;-87
2022/05/15 01:06:13;;;;;;;8.28;6.45;;;;;;;11.97;67.77;96813.23;1725403;82;21026;-87
2022/05/15 01:08:39;;;;;;;9.98;6.35;;;;;;;11.93;67.97;96814.59;1713747;82;21180;-86
2022/05/15 01:11:10;;;;;;;7.53;6.12;;;;;;;11.93;68.04;96813.28;1721742;83;21066;-87
2022/05/15 01:13:39;;;;;;;7.55;6.10;;;;;;;11.92;68.01;96822.89;1730708;82;21018;-87
2022/05/15 01:16:05;;;;;;;6.67;5.97;;;;;;;11.91;68.06;96817.86;1722895;82;21038;-87
2022/05/15 01:18:33;;;;;;;8.35;6.10;;;;;;;11.93;68.22;96825.81;1724569;83;21053;-86
2022/05/15 01:21:01;;;;;;;8.45;6.05;;;;;;;11.95;68.12;96823.83;1718116;83;21039;-87
2022/05/15 01:23:29;;;;;;;6.80;6.10;;;;;;;11.95;68.20;96818.62;1722909;82;21065;-87
2022/05/15 01:25:56;;;;;;;7.53;6.40;;;;;;;11.94;68.32;96820.11;1746506;81;21039;-87
2022/05/15 01:28:24;;;;;;;8.48;6.08;;;;;;;11.93;68.43;96824.51;1707140;83;20994;-87
2022/05/15 01:30:53;;;;;;;6.60;5.67;;;;;;;11.93;68.62;96824.51;1690054;83;21033;-87
2022/05/15 01:33:20;;;;;;;8.28;5.83;;;;;;;11.94;68.63;96826.61;1721300;82;21069;-87
2022/05/15 01:35:46;;;;;;;9.90;5.78;;;;;;;11.93;68.61;96828.41;1725830;83;21446;-87
2022/05/15 01:38:12;;;;;;;9.05;6.58;;;;;;;11.92;68.64;96827.30;1727080;81;21162;-87
2022/05/15 01:40:38;;;;;;;6.83;5.70;;;;;;;11.91;68.63;96832.19;1748160;81;21109;-87
2022/05/15 01:43:04;;;;;;;8.35;5.97;;;;;;;11.90;68.75;96831.37;1730378;82;20972;-87
2022/05/15 01:45:30;;;;;;;9.38;6.47;;;;;;;11.90;68.71;96831.88;1731104;82;21015;-87
2022/05/15 01:47:56;;;;;;;7.47;6.05;;;;;;;11.84;68.60;96834.67;1731226;82;21026;-87
2022/05/15 01:50:21;;;;;;;8.20;6.22;;;;;;;11.81;68.64;96826.42;1731322;82;21018;-86
2022/05/15 01:52:47;;;;;;;6.97;5.47;;;;;;;11.78;68.86;96828.86;1732128;81;21019;-87
2022/05/15 01:55:13;;;;;;;7.00;6.17;;;;;;;11.75;68.88;96827.92;1763978;81;21125;-87
2022/05/15 01:57:40;;;;;;;7.28;6.30;;;;;;;11.75;68.83;96821.91;1754714;81;21129;-87
2022/05/15 02:00:09;;;;;;;8.98;5.67;;;;;;;11.75;68.90;96827.92;1732570;81;20960;-87
2022/05/15 02:02:35;;;;;;;7.85;6.45;;;;;;;11.75;68.81;96827.92;1761216;80;21133;-87
2022/05/15 02:05:01;;;;;;;8.38;6.80;;;;;;;11.71;68.70;96830.08;1746124;81;20998;-87
2022/05/15 02:07:27;;;;;;;8.23;6.47;;;;;;;11.70;68.78;96832.34;1733547;80;21467;-87
2022/05/15 02:09:52;;;;;;;7.30;6.58;;;;;;;11.64;69.08;96829.16;1716520;83;21153;-87
2022/05/15 02:12:18;;;;;;;7.15;6.12;;;;;;;11.62;69.22;96831.62;1730339;82;21113;-86
2022/05/15 02:14:44;;;;;;;8.50;7.12;;;;;;;11.58;69.19;96836.88;1717930;83;21167;-87
2022/05/15 02:17:10;;;;;;;8.60;6.53;;;;;;;11.54;69.31;96834.28;1720209;82;21165;-86
2022/05/15 02:19:35;;;;;;;7.15;6.37;;;;;;;11.51;69.55;96835.94;1711771;83;21084;-87
2022/05/15 02:22:01;;;;;;;8.70;6.28;;;;;;;11.49;69.53;96830.11;1708359;82;21107;-88
2022/05/15 02:24:28;;;;;;;9.00;6.53;;;;;;;11.48;69.89;96838.41;1724956;83;21523;-86
2022/05/15 02:26:54;;;;;;;7.17;6.35;;;;;;;11.49;70.08;96836.61;1722243;82;21130;-87
2022/05/15 02:29:19;;;;;;;9.43;7.28;;;;;;;11.47;69.91;96831.59;1722674;82;20995;-87
2022/05/15 02:31:45;;;;;;;7.78;6.40;;;;;;;11.44;70.05;96829.34;1714149;82;21149;-86
2022/05/15 02:34:11;;;;;;;10.53;7.50;;;;;;;11.39;69.99;96835.08;1726621;82;21073;-86
2022/05/15 02:36:37;;;;;;;9.38;6.42;;;;;;;11.36;70.18;96834.59;1721244;82;21396;-86
2022/05/15 02:39:03;;;;;;;9.80;6.78;;;;;;;11.35;70.29;96836.39;1726226;82;21074;-87
2022/05/15 02:41:30;;;;;;;10.08;7.22;;;;;;;11.33;70.31;96834.46;1699202;83;21096;-87
2022/05/15 02:43:56;;;;;;;11.33;7.22;;;;;;;11.34;70.35;96835.27;1724976;82;21461;-87
2022/05/15 02:46:22;;;;;;;10.82;7.72;;;;;;;11.32;70.77;96839.84;1726289;82;20982;-86
2022/05/15 02:51:32;;;;;;;10.50;7.60;;;;;;;11.27;70.78;96840.38;1759377;81;21117;-86
2022/05/15 02:53:58;;;;;;;8.35;7.05;;;;;;;11.24;70.91;96845.93;1764212;81;21113;-86
2022/05/15 02:56:26;;;;;;;9.45;7.62;;;;;;;11.20;71.02;96844.64;1763455;81;21073;-86
2022/05/15 02:58:52;;;;;;;7.92;6.87;;;;;;;11.18;71.04;96849.20;1752690;81;21421;-86
2022/05/15 03:01:19;;;;;;;7.70;6.65;;;;;;;11.20;71.23;96849.03;1748405;81;21003;-86
2022/05/15 03:03:44;;;;;;;9.63;7.62;;;;;;;11.17;71.20;96844.99;1748420;81;21446;-86
2022/05/15 03:06:10;;;;;;;8.68;7.78;;;;;;;11.18;71.16;96846.61;1762700;81;21129;-86
2022/05/15 03:08:39;;;;;;;9.13;8.20;;;;;;;11.17;71.14;96845.48;1747814;81;21085;-86
2022/05/15 03:11:05;;;;;;;9.40;7.60;;;;;;;11.16;71.31;96845.17;1765275;81;21033;-86
2022/05/15 03:13:31;;;;;;;10.50;7.78;;;;;;;11.12;71.55;96844.22;1760386;81;21556;-86
2022/05/15 03:15:57;;;;;;;10.50;7.72;;;;;;;11.10;71.64;96847.98;1763476;80;21082;-86
2022/05/15 03:18:23;;;;;;;9.43;7.25;;;;;;;11.09;71.74;96850.27;1764460;81;21131;-86
2022/05/15 03:20:49;;;;;;;8.88;7.20;;;;;;;11.09;71.73;96847.66;1756768;81;20964;-86
2022/05/15 03:23:15;;;;;;;9.58;7.22;;;;;;;11.08;71.67;96844.75;1761279;81;21288;-86
2022/05/15 03:25:41;;;;;;;11.68;7.62;;;;;;;11.07;71.64;96845.73;1761383;81;20995;-86
2022/05/15 03:28:09;;;;;;;10.93;7.58;;;;;;;11.09;71.71;96843.77;1759645;81;21028;-86
2022/05/15 03:30:37;;;;;;;10.05;7.25;;;;;;;11.09;71.77;96848.97;1757938;81;20975;-86
2022/05/15 03:33:03;;;;;;;9.15;7.17;;;;;;;11.07;71.87;96845.24;1762169;81;21136;-86
2022/05/15 03:35:29;;;;;;;10.55;8.33;;;;;;;11.06;72.03;96849.28;1765367;79;20991;-87
2022/05/15 03:37:55;;;;;;;11.93;8.05;;;;;;;11.03;72.17;96850.45;1782970;80;20968;-87
2022/05/15 03:40:21;;;;;;;11.73;7.92;;;;;;;11.04;72.25;96857.27;1767839;80;21055;-87
2022/05/15 03:42:46;;;;;;;10.90;8.23;;;;;;;11.06;72.29;96847.98;1762381;80;21465;-87
2022/05/15 03:45:12;;;;;;;12.20;8.48;;;;;;;11.08;72.23;96857.26;1757083;80;21085;-87
2022/05/15 03:47:48;;;;;;;12.93;8.45;;;;;;;11.10;72.34;96857.89;1747840;80;20999;-87
2022/05/15 03:50:14;;;;;;;11.85;8.38;;;;;;;11.12;72.27;96855.92;1746623;82;20987;-87
2022/05/15 03:52:40;;;;;;;13.65;9.85;;;;;;;11.15;72.35;96857.86;1727166;83;21045;-87
2022/05/15 03:55:07;;;;;;;12.85;9.65;;;;;;;11.15;72.52;96858.66;1742210;81;21537;-87
2022/05/15 03:57:33;;;;;;;11.83;8.48;;;;;;;11.15;72.59;96861.76;1748341;82;21098;-86
2022/05/15 03:59:59;;;;;;;8.78;7.87;;;;;;;11.15;72.73;96863.87;1709130;83;21730;-86
2022/05/15 04:02:25;;;;;;;7.97;7.17;;;;;;;11.15;72.89;96865.66;1683647;83;21133;-87
2022/05/15 04:04:51;;;;;;;12.37;8.25;;;;;;;11.17;73.10;96863.20;1689151;84;20988;-87
2022/05/15 04:07:16;;;;;;;10.38;8.00;;;;;;;11.14;73.06;96854.45;1674182;84;21031;-87
2022/05/15 04:09:42;;;;;;;19.90;9.78;;;;;;;11.20;73.02;96865.94;1674295;84;21001;-87
2022/05/15 04:12:10;;;;;;;14.73;8.75;;;;;;;11.24;73.13;96868.53;1676519;83;21440;-87
2022/05/15 04:14:36;;;;;;;10.23;7.83;;;;;;;11.24;73.17;96865.94;1669656;84;21037;-87
2022/05/15 04:17:01;;;;;;;11.08;7.80;;;;;;;11.23;73.13;96870.33;1669665;84;21057;-87
2022/05/15 04:19:27;;;;;;;7.83;6.33;;;;;;;11.22;73.24;96871.28;1673945;82;21099;-87
2022/05/15 04:21:53;;;;;;;8.98;5.78;;;;;;;11.23;73.19;96875.53;1684585;84;21067;-87
2022/05/15 04:24:19;;;;;;;11.40;5.20;;;;;;;11.24;73.02;96872.44;1686350;84;21118;-87
2022/05/15 04:26:46;;;;;;;6.72;5.40;;;;;;;11.25;73.13;96868.85;1691184;84;21138;-87
2022/05/15 04:29:12;;;;;;;8.40;6.00;;;;;;;11.25;73.18;96868.36;1673622;83;21398;-87
2022/05/15 04:31:38;;;;;;;9.43;5.90;;;;;;;11.27;73.06;96866.88;1724204;82;20991;-87
2022/05/15 04:34:04;;;;;;;7.92;5.53;;;;;;;11.27;73.11;96875.50;1691928;83;21062;-86
2022/05/15 04:36:31;;;;;;;7.37;5.37;;;;;;;11.28;73.07;96877.60;1682549;85;21039;-87
2022/05/15 04:38:57;;;;;;;9.08;4.72;;;;;;;11.28;72.94;96877.11;1692186;83;21067;-87
2022/05/15 04:41:23;;;;;;;8.20;4.72;;;;;;;11.29;72.92;96876.13;1693263;83;21492;-86
2022/05/15 04:43:49;;;;;;;7.92;4.60;;;;;;;11.31;72.95;96880.66;1725276;83;21076;-87
2022/05/15 04:46:16;;;;;;;7.10;4.80;;;;;;;11.33;73.03;96878.69;1733004;83;21082;-87
2022/05/15 04:48:42;;;;;;;7.33;4.40;;;;;;;11.37;73.05;96883.05;1708792;83;21078;-86
2022/05/15 04:51:08;;;;;;;6.40;4.62;;;;;;;11.39;73.08;96883.22;1687983;84;21455;-86
2022/05/15 04:53:33;;;;;;;10.13;5.08;;;;;;;11.44;73.18;96886.59;1713590;83;21027;-87
2022/05/15 04:56:00;;;;;;;6.78;4.53;;;;;;;11.51;73.24;96880.18;1702522;84;21140;-87
2022/05/15 04:58:26;;;;;;;10.00;4.97;;;;;;;11.59;73.32;96885.33;1682804;84;21057;-87
2022/05/15 05:00:52;;;;;;;9.05;5.03;;;;;;;11.68;73.16;96890.77;1693505;83;21167;-87
2022/05/15 05:03:18;;;;;;;6.62;5.10;;;;;;;11.77;73.21;96881.92;1675506;84;21122;-87
2022/05/15 05:05:44;;;;;;;7.97;5.55;;;;;;;11.85;73.20;96890.97;1680039;84;21162;-87
2022/05/15 05:08:10;;;;;;;10.38;5.85;;;;;;;11.93;73.12;96893.52;1676263;84;21526;-87
2022/05/15 05:10:37;;;;;;;8.23;5.37;;;;;;;12.02;73.36;96900.73;1670422;84;21090;-87
2022/05/15 05:13:03;;;;;;;7.72;5.08;;;;;;;12.12;73.28;96896.59;1694429;83;20999;-86
2022/05/15 05:15:28;;;;;;;6.95;4.58;;;;;;;12.24;73.43;96893.86;1686610;83;21031;-87
2022/05/15 05:17:55;;;;;;;8.23;5.00;;;;;;;12.36;73.39;96898.91;1686460;83;21406;-87
2022/05/15 05:20:23;;;;;;;8.45;4.50;;;;;;;12.47;73.80;96901.08;1699342;83;21431;-87
2022/05/15 05:22:49;;;;;;;7.25;4.67;;;;;;;12.59;73.69;96900.14;1715345;83;21100;-87
2022/05/15 05:25:16;;;;;;;9.53;4.62;;;;;;;12.70;73.53;96905.39;1747507;82;21123;-87
2022/05/15 05:27:42;;;;;;;10.75;7.15;;;;;;;12.80;73.21;96913.72;1735021;82;21000;-87
2022/05/15 05:30:14;;;;;;;15.93;10.78;;;;;;;12.87;72.93;96923.75;1734854;81;20999;-87
2022/05/15 05:32:40;;;;;;;12.58;9.73;;;;;;;12.96;72.80;96924.44;1746450;80;21099;-87
2022/05/15 05:35:07;;;;;;;10.82;9.73;;;;;;;13.08;72.60;96928.20;1732835;81;21419;-86
2022/05/15 05:37:32;;;;;;;11.80;10.28;;;;;;;13.13;72.32;96929.25;1739180;82;21041;-87
2022/05/15 05:39:58;;;;;;;11.80;10.10;;;;;;;13.16;71.86;96931.49;1738857;82;21062;-87
2022/05/15 05:42:24;;;;;;;14.07;11.65;;;;;;;13.17;71.31;96931.80;1703505;82;21056;-87
2022/05/15 05:44:50;;;;;;;13.18;10.32;;;;;;;13.23;71.17;96932.11;1726427;82;21044;-86
2022/05/15 05:47:24;;;;;;;13.53;11.30;;;;;;;13.28;71.05;96935.77;1730392;81;21035;-87
2022/05/15 05:49:50;;;;;;;14.23;11.20;;;;;;;13.34;71.41;96940.27;1731159;81;21001;-87
2022/05/15 05:52:16;;;;;;;14.60;11.73;;;;;;;13.37;70.74;96938.59;1756047;81;21042;-87
2022/05/15 05:54:42;;;;;;;12.47;11.00;;;;;;;13.45;70.37;96947.59;1753198;81;21394;-87
2022/05/15 05:57:08;;;;;;;11.60;10.23;;;;;;;13.49;69.40;96945.41;1766529;80;20998;-87
2022/05/15 05:59:34;;;;;;;14.10;12.10;;;;;;;13.53;69.05;96951.90;1760207;80;21043;-87
2022/05/15 06:01:59;;;;;;;15.53;13.08;;;;;;;13.55;68.48;96949.91;1734647;81;21002;-87
2022/05/15 06:04:41;;;;;;;14.93;11.70;;;;;;;13.57;69.17;96945.30;1728517;83;21082;-87
2022/05/15 06:07:12;;;;;;;16.05;12.60;;;;;;;13.61;69.13;96943.93;1761679;80;22234;-86
2022/05/15 06:09:40;;;;;;;16.48;10.95;;;;;;;13.67;68.60;96948.42;1765188;80;20982;-86
2022/05/15 06:12:07;;;;;;;17.80;11.90;;;;;;;13.73;68.65;96948.16;1764176;81;21006;-87
2022/05/15 06:14:32;;;;;;;13.72;11.43;;;;;;;13.77;68.53;96958.54;1757600;81;21369;-87
2022/05/15 06:16:58;;;;;;;12.28;10.53;;;;;;;13.76;68.04;96951.70;1757442;81;20988;-87
2022/05/15 06:19:26;;;;;;;12.73;11.28;;;;;;;13.77;67.72;96954.13;1757207;81;21025;-87
2022/05/15 06:21:51;;;;;;;12.68;11.10;;;;;;;13.79;67.71;96950.82;1760659;81;20931;-86
2022/05/15 06:24:17;;;;;;;13.55;10.65;;;;;;;13.78;67.70;96949.70;1752633;81;20964;-87
2022/05/15 06:26:43;;;;;;;11.75;10.53;;;;;;;13.83;67.57;96952.58;1763958;81;20999;-87
2022/05/15 06:29:08;;;;;;;13.53;9.70;;;;;;;13.85;67.05;96956.31;1756325;80;21417;-87
2022/05/15 06:31:34;;;;;;;12.82;10.85;;;;;;;13.87;66.92;96953.81;1752828;81;21327;-87
2022/05/15 06:34:00;;;;;;;14.45;10.25;;;;;;;13.93;66.88;96958.28;1757183;80;21038;-86
2022/05/15 06:36:26;;;;;;;12.23;9.88;;;;;;;14.03;66.79;96955.36;1752145;81;21022;-87
2022/05/15 06:38:52;;;;;;;12.13;10.40;;;;;;;14.08;66.19;96959.00;1750341;81;21054;-87
2022/05/15 06:41:18;;;;;;;12.80;10.53;;;;;;;14.11;65.96;96967.77;1755819;81;21027;-87
2022/05/15 06:43:44;;;;;;;15.38;10.90;;;;;;;14.17;66.07;96960.99;1755940;81;21363;-87
2022/05/15 06:46:09;;;;;;;13.58;10.15;;;;;;;14.26;65.18;96959.84;1745662;81;20932;-87
2022/05/15 06:48:35;;;;;;;12.20;9.38;;;;;;;14.35;65.71;96966.55;1747718;81;20995;-87
2022/05/15 06:51:03;;;;;;;10.40;9.30;;;;;;;14.46;65.65;96967.03;1751350;81;20936;-87
2022/05/15 06:53:28;;;;;;;11.45;8.75;;;;;;;14.55;65.23;96962.78;1752891;79;21069;-86
2022/05/15 06:58:40;;;;;;;9.43;7.35;;;;;;;14.67;64.39;96965.17;1760311;80;21041;-86
2022/05/15 07:01:06;;;;;;;12.98;8.80;;;;;;;14.74;64.43;96961.27;1754616;81;21081;-86
2022/05/15 07:03:32;;;;;;;8.78;7.17;;;;;;;14.78;63.54;96958.56;1745181;81;21398;-86
2022/05/15 07:05:58;;;;;;;10.78;8.20;;;;;;;14.84;63.42;96961.73;1758097;81;21404;-86
2022/05/15 07:08:23;;;;;;;9.13;7.47;;;;;;;14.87;62.72;96965.27;1760345;81;20968;-86
2022/05/15 07:10:49;;;;;;;11.97;7.58;;;;;;;14.92;63.16;96958.13;1726487;81;21469;-86
2022/05/15 07:13:15;;;;;;;12.10;7.28;;;;;;;14.97;62.43;96964.92;1754383;81;20984;-86
2022/05/15 07:15:41;;;;;;;12.33;8.08;;;;;;;14.98;62.47;96969.14;1732777;81;21113;-86
2022/05/15 07:18:07;;;;;;;12.85;8.05;;;;;;;15.05;62.57;96970.47;1762071;81;20956;-86
2022/05/15 07:20:33;;;;;;;11.50;7.12;;;;;;;15.09;62.04;96967.26;1759615;81;20998;-85
2022/05/15 07:22:59;;;;;;;12.60;8.45;;;;;;;15.16;62.09;96969.92;1750845;81;22083;-86
2022/05/15 07:25:25;;;;;;;11.40;7.92;;;;;;;15.19;62.08;96970.83;1763910;81;21010;-85
2022/05/15 07:27:51;;;;;;;12.90;10.03;;;;;;;15.25;62.20;96973.96;1760804;81;21062;-88
2022/05/15 07:30:17;;;;;;;9.93;8.53;;;;;;;15.30;61.93;96972.89;1758543;81;21102;-87
2022/05/15 07:32:43;;;;;;;11.85;8.68;;;;;;;15.33;62.00;96973.00;1741581;81;21114;-86
2022/05/15 07:35:09;;;;;;;12.18;8.48;;;;;;;15.37;61.90;96972.39;1753277;81;21485;-86
2022/05/15 07:37:35;;;;;;;12.93;7.95;;;;;;;15.43;62.45;96970.79;1751588;81;21070;-86
2022/05/15 07:40:01;;;;;;;12.45;7.42;;;;;;;15.47;62.22;96968.91;1723762;82;21025;-86
2022/05/15 07:42:27;;;;;;;12.20;7.28;;;;;;;15.52;61.12;96981.41;1719582;83;21101;-86
2022/05/15 07:44:57;;;;;;;12.45;6.72;;;;;;;15.52;61.05;96976.97;1719582;81;21390;-86
2022/05/15 07:47:20;;;;;;;13.75;6.10;;;;;;;15.57;61.14;96978.98;1767228;81;21048;-86
2022/05/15 07:49:46;;;;;;;10.90;6.97;;;;;;;15.63;60.92;96980.86;1759874;80;21022;-86
2022/05/15 07:52:11;;;;;;;17.95;9.75;;;;;;;15.71;60.94;96983.78;1732218;80;20994;-86
2022/05/15 07:54:37;;;;;;;8.30;5.37;;;;;;;15.79;60.92;96984.42;1749846;81;20991;-86
2022/05/15 07:57:03;;;;;;;9.08;5.65;;;;;;;15.88;59.52;96989.75;1759637;81;21457;-86
2022/05/15 07:59:29;;;;;;;10.95;5.40;;;;;;;15.89;59.24;96988.74;1758203;81;21096;-86
2022/05/15 08:01:58;;;;;;;10.63;5.40;;;;;;;15.95;59.59;96989.78;1733013;81;21491;-86
2022/05/15 08:04:24;;;;;;;11.38;5.55;;;;;;;16.05;59.90;96993.30;1722231;83;21094;-86
2022/05/15 08:09:33;;;;;;;16.67;7.92;;;;;;;16.21;59.52;96991.08;1763975;81;21378;-86
2022/05/15 08:11:59;;;;;;;14.15;7.37;;;;;;;16.34;58.70;96996.02;1733501;80;21019;-85
2022/05/15 08:14:25;;;;;;;12.73;7.15;;;;;;;16.38;58.00;96997.23;1747727;80;20972;-86
2022/05/15 08:16:50;;;;;;;9.40;6.70;;;;;;;16.45;58.83;96993.60;1752856;80;20936;-86
2022/05/15 08:24:45;;;;;;;8.93;5.15;;;;;;;16.61;58.34;96991.06;1760780;81;21093;-85
2022/05/15 08:27:11;;;;;;;10.98;5.65;;;;;;;16.76;58.32;96990.36;1759659;81;21075;-86
2022/05/15 08:29:38;;;;;;;10.15;6.28;;;;;;;16.90;58.05;96986.36;1762741;81;21078;-86
2022/05/15 08:32:05;;;;;;;10.32;6.92;;;;;;;17.08;58.33;96993.06;1726250;81;21096;-86
2022/05/15 08:34:32;;;;;;;12.23;8.05;;;;;;;17.23;57.96;96994.12;1717673;83;21096;-86
2022/05/15 08:37:00;;;;;;;11.53;7.53;;;;;;;17.37;57.50;96988.59;1721330;82;21767;-86
2022/05/15 08:39:27;;;;;;;11.93;7.62;;;;;;;17.49;57.19;96984.81;1722494;82;21083;-86
2022/05/15 08:42:08;;;;;;;17.07;8.85;;;;;;;17.64;57.30;96997.16;1726616;83;21090;-86
2022/05/15 08:44:34;;;;;;;12.63;7.55;;;;;;;17.79;57.21;96993.47;1729167;83;21483;-86
2022/05/15 08:47:18;;;;;;;13.03;7.80;;;;;;;17.86;56.74;96991.59;1722942;82;21065;-86
2022/05/15 08:49:53;;;;;;;10.43;7.17;;;;;;;17.76;57.00;96992.08;1722099;83;21415;-86
2022/05/15 08:52:46;;;;;;;13.53;7.83;;;;;;;17.57;56.79;96992.46;1725044;83;21081;-86
2022/05/15 08:55:17;;;;;;;12.07;6.87;;;;;;;17.72;55.59;96982.17;1724011;82;21049;-86
2022/05/15 08:58:02;;;;;;;10.58;7.17;;;;;;;17.94;56.40;96989.52;1726045;81;21337;-86
2022/05/15 09:00:52;;;;;;;12.18;6.85;;;;;;;18.22;56.01;96999.64;1725568;82;21049;-86
2022/05/15 09:03:25;;;;;;;12.95;7.20;;;;;;;18.44;54.65;96980.31;1729068;82;21439;-86
2022/05/15 09:05:59;;;;;;;9.73;5.87;;;;;;;18.56;53.88;96989.63;1721915;83;21434;-86
2022/05/15 09:09:08;;;;;;;11.28;5.50;;;;;;;18.56;54.62;96987.80;1724440;82;21377;-86
2022/05/15 09:11:57;;;;;;;11.10;5.42;;;;;;;18.53;53.36;96992.16;1724313;82;21035;-86
2022/05/15 09:14:48;;;;;;;9.30;5.05;;;;;;;18.16;53.32;96993.09;1722086;82;22306;-86
2022/05/15 09:17:46;;;;;;;9.93;5.07;;;;;;;17.89;53.48;96998.53;1723271;83;21022;-87
2022/05/15 09:20:26;;;;;;;11.45;5.25;;;;;;;17.74;54.09;96996.74;1659311;86;21408;-87
2022/05/15 09:23:04;;;;;;;8.80;4.37;;;;;;;18.00;54.90;96987.85;1723697;82;21046;-87
2022/05/15 09:25:34;;;;;;;10.35;4.25;;;;;;;18.22;54.47;96997.01;1737489;82;21098;-87
2022/05/15 09:28:04;;;;;;;9.35;4.58;;;;;;;18.30;53.46;96988.03;1749491;81;21139;-87
2022/05/15 09:30:45;;;;;;;8.40;3.35;;;;;;;18.15;53.10;96994.12;1748966;81;21023;-86
2022/05/15 09:33:45;;;;;;;8.33;3.60;;;;;;;18.06;51.27;97000.64;1725675;81;20988;-86
2022/05/15 09:36:38;;;;;;;6.08;3.30;;;;;;;18.24;49.71;97008.63;1722145;83;21103;-87
2022/05/15 09:39:16;;;;;;;9.48;3.85;;;;;;;18.45;49.72;97000.34;1719681;82;21006;-86
2022/05/15 09:44:33;;;;;;;7.95;3.92;;;;;;;18.93;50.13;96987.85;1722214;82;21082;-88
2022/05/15 09:47:02;;;;;;;9.15;3.77;;;;;;;19.13;50.72;96989.73;1712084;83;21440;-88
2022/05/15 09:49:33;;;;;;;7.70;3.50;;;;;;;19.30;50.56;96991.26;1723083;83;21384;-88
2022/05/15 09:52:02;;;;;;;8.20;3.67;;;;;;;19.55;49.19;96996.45;1724805;82;21353;-88
2022/05/15 09:54:38;;;;;;;6.50;2.92;;;;;;;19.56;48.64;96996.75;1762284;81;21003;-88
2022/05/15 09:57:13;;;;;;;10.45;4.90;;;;;;;19.24;47.21;97000.06;1755843;81;21023;-89
2022/05/15 09:59:39;;;;;;;12.80;8.28;;;;;;;18.80;48.08;96991.94;1755754;81;21032;-88
2022/05/15 10:02:05;;;;;;;7.85;4.05;;;;;;;18.47;49.35;97002.24;1754991;81;20988;-88
2022/05/15 10:04:37;;;;;;;7.45;3.80;;;;;;;18.40;49.43;96997.56;1755749;81;21038;-88
2022/05/15 10:07:06;;;;;;;8.23;3.92;;;;;;;18.60;49.40;96999.50;1759279;81;21018;-88
2022/05/15 10:09:40;;;;;;;8.13;3.95;;;;;;;18.77;48.61;96989.75;1758944;81;20987;-89
2022/05/15 10:12:27;;;;;;;9.98;4.75;;;;;;;18.87;49.18;96994.81;1732095;81;21038;-89
2022/05/15 10:14:59;;;;;;;8.28;4.25;;;;;;;18.88;49.08;96998.25;1754845;81;21528;-89
2022/05/15 10:17:25;;;;;;;10.50;3.85;;;;;;;18.71;48.63;97000.65;1762205;80;21026;-88
2022/05/15 10:20:07;;;;;;;18.27;9.35;;;;;;;18.66;48.93;96995.72;1757317;81;20983;-89
2022/05/15 10:22:57;;;;;;;20.52;12.90;;;;;;;18.82;49.14;96988.57;1753481;81;21086;-89
2022/05/15 10:25:37;;;;;;;12.20;5.90;;;;;;;18.93;49.29;96991.80;1755199;81;21056;-89
2022/05/15 10:28:35;;;;;;;11.20;5.53;;;;;;;19.22;47.67;96986.82;1756823;81;21061;-89
2022/05/15 10:31:22;;;;;;;7.83;4.15;;;;;;;19.41;47.17;96980.49;1778061;80;21033;-89
2022/05/15 10:33:51;;;;;;;11.85;6.12;;;;;;;19.29;47.38;96980.43;1739652;81;21137;-89
2022/05/15 10:36:56;;;;;;;10.63;4.58;;;;;;;19.09;48.33;96989.90;1741955;81;21106;-88
2022/05/15 10:39:39;;;;;;;7.10;3.83;;;;;;;18.97;47.98;96988.21;1766319;80;21499;-88
2022/05/15 10:42:20;;;;;;;5.45;3.27;;;;;;;19.03;48.04;96985.49;1773695;80;20982;-89
2022/05/15 10:45:18;;;;;;;7.50;3.45;;;;;;;19.37;48.15;96980.14;1762171;80;21077;-89
2022/05/15 10:48:11;;;;;;;9.20;4.17;;;;;;;19.64;46.56;96983.23;1789002;80;21112;-88
2022/05/15 10:51:05;;;;;;;20.95;10.98;;;;;;;19.72;48.51;96996.63;1769285;80;21075;-87
2022/05/15 10:57:21;;;;;;;11.78;6.95;;;;;;;19.85;48.34;96985.06;1773328;80;21499;-87
2022/05/15 11:00:10;;;;;;;8.65;4.58;;;;;;;20.00;48.03;96984.13;1784622;79;21020;-87
2022/05/15 11:03:06;;;;;;;7.62;3.42;;;;;;;20.13;46.56;96977.34;1782756;79;21008;-88
2022/05/15 11:05:59;;;;;;;6.72;3.42;;;;;;;20.28;46.10;96974.26;1770766;78;21030;-87
2022/05/15 11:08:54;;;;;;;8.13;2.87;;;;;;;20.33;46.24;96983.60;1756271;80;21393;-88
2022/05/15 11:11:43;;;;;;;6.28;3.20;;;;;;;20.34;45.32;96978.64;1757584;79;21403;-88
2022/05/15 11:14:44;;;;;;;8.88;3.35;;;;;;;20.09;44.96;96977.51;1751503;82;20988;-88
2022/05/15 11:17:36;;;;;;;8.48;3.58;;;;;;;20.15;44.73;96971.31;1750581;80;20982;-87
2022/05/15 11:20:09;;;;;;;6.55;2.90;;;;;;;20.35;46.11;96976.28;1734309;80;20999;-88
2022/05/15 11:22:50;;;;;;;6.87;3.67;;;;;;;20.38;44.51;96973.98;1751618;80;21406;-88
2022/05/15 11:25:30;;;;;;;7.10;2.72;;;;;;;20.35;43.77;96973.64;1764678;80;21367;-88
2022/05/15 11:28:17;;;;;;;6.75;3.47;;;;;;;20.30;43.26;96965.08;1762896;79;20984;-87
2022/05/15 11:30:44;;;;;;;9.15;2.92;;;;;;;20.33;44.01;96967.77;1779695;79;21429;-88
2022/05/15 11:33:42;;;;;;;5.65;2.52;;;;;;;20.46;43.69;96961.49;1770625;78;20944;-88
2022/05/15 11:36:16;;;;;;;5.28;2.50;;;;;;;20.68;43.92;96953.30;1776921;79;21000;-88
2022/05/15 11:38:51;;;;;;;7.37;3.08;;;;;;;20.85;42.58;96949.42;1778777;79;20984;-88
2022/05/15 11:41:39;;;;;;;6.92;3.00;;;;;;;20.52;42.72;96964.04;1767822;79;21015;-88
2022/05/15 11:44:33;;;;;;;7.75;2.98;;;;;;;20.20;44.15;96961.42;1776325;78;21001;-88
2022/05/15 11:47:01;;;;;;;7.05;2.72;;;;;;;20.15;44.13;96967.36;1777725;79;21349;-87
2022/05/15 11:49:35;;;;;;;8.73;3.40;;;;;;;19.92;44.06;96968.65;1786254;80;21022;-87
2022/05/15 11:52:11;;;;;;;5.37;3.37;;;;;;;19.83;43.83;96968.16;1763180;80;21006;-87
2022/05/15 11:54:43;;;;;;;6.78;2.70;;;;;;;20.01;43.91;96960.19;1774614;80;21601;-87
2022/05/15 11:57:11;;;;;;;7.45;3.62;;;;;;;20.24;43.92;96959.41;1777029;80;21473;-87
2022/05/15 11:59:49;;;;;;;5.67;2.87;;;;;;;20.52;44.65;96950.84;1777045;80;21387;-87
2022/05/15 12:02:33;;;;;;;8.43;2.80;;;;;;;20.71;42.12;96947.55;1777619;80;20943;-87
2022/05/15 12:05:11;;;;;;;5.58;2.72;;;;;;;20.83;42.10;96946.22;1776388;80;21071;-87